Time;durP1;ratioP1;P1;durP2;ratioP2;P2;SDS_P1;SDS_P2;PMS_P1;PMS_P2;Temp;Humidity;BMP_temperature;BMP_pressure;BME280_temperature;BME280_humidity;BME280_pressure;Samples;Min_cycle;Max_cycle;Signal;HPM_P1;HPM_P2
2023/08/11 00:00:47;;;;;;;12.13;2.83;;;;;;;18.60;100.00;100638.13;4992966;28;20100;-94
2023/08/11 00:03:13;;;;;;;10.75;2.42;;;;;;;18.55;100.00;100627.25;4990895;28;20031;-94
2023/08/11 00:05:39;;;;;;;16.08;3.97;;;;;;;18.62;100.00;100633.59;4992041;28;20084;-94
2023/08/11 00:08:06;;;;;;;9.68;2.85;;;;;;;18.51;100.00;100625.88;4992496;28;20022;-94
2023/08/11 00:10:35;;;;;;;8.65;2.22;;;;;;;18.52;100.00;100625.75;4992622;28;20026;-95
2023/08/11 00:13:01;;;;;;;13.43;3.55;;;;;;;18.50;100.00;100627.66;4988559;28;20113;-94
2023/08/11 00:15:31;;;;;;;11.13;2.40;;;;;;;18.58;100.00;100627.81;4972781;28;20460;-94
2023/08/11 00:18:02;;;;;;;12.90;2.97;;;;;;;18.58;100.00;100626.97;4972677;28;20069;-93
2023/08/11 00:20:28;;;;;;;9.35;2.33;;;;;;;18.54;100.00;100625.63;4972903;28;20026;-94
2023/08/11 00:22:54;;;;;;;10.07;2.58;;;;;;;18.53;100.00;100626.56;4973563;28;20027;-93
2023/08/11 00:25:19;;;;;;;10.85;2.90;;;;;;;18.44;100.00;100627.38;4973913;28;20062;-93
2023/08/11 00:27:45;;;;;;;8.68;2.00;;;;;;;18.52;100.00;100628.34;4972893;28;20058;-93
2023/08/11 00:30:11;;;;;;;12.27;2.38;;;;;;;18.47;100.00;100624.50;4973939;28;20023;-94
2023/08/11 00:32:36;;;;;;;9.35;1.70;;;;;;;18.49;100.00;100627.81;4974141;28;20061;-93
2023/08/11 00:35:02;;;;;;;10.50;2.10;;;;;;;18.38;100.00;100620.88;4990344;28;20499;-94
2023/08/11 00:37:27;;;;;;;14.23;3.22;;;;;;;18.39;100.00;100625.19;4991927;28;20057;-94
2023/08/11 00:39:53;;;;;;;9.50;2.00;;;;;;;18.47;100.00;100619.28;4993029;28;20031;-94
2023/08/11 00:42:18;;;;;;;6.85;2.08;;;;;;;18.43;100.00;100617.88;4991738;28;20069;-93
2023/08/11 00:44:44;;;;;;;7.97;2.03;;;;;;;18.51;100.00;100625.88;4991991;28;20114;-94
2023/08/11 00:47:10;;;;;;;10.57;2.30;;;;;;;18.34;100.00;100619.53;4991699;28;20444;-94
2023/08/11 00:49:35;;;;;;;7.65;2.25;;;;;;;18.34;100.00;100627.38;4991398;28;20026;-94
2023/08/11 00:52:01;;;;;;;6.32;1.85;;;;;;;18.38;100.00;100623.50;4992791;28;20058;-94
2023/08/11 00:54:27;;;;;;;6.78;1.95;;;;;;;18.47;100.00;100624.50;4991400;28;20030;-94
2023/08/11 00:56:53;;;;;;;5.00;1.90;;;;;;;18.32;100.00;100619.66;4991712;28;20077;-93
2023/08/11 00:59:19;;;;;;;9.98;3.42;;;;;;;18.40;100.00;100618.97;4991643;28;20104;-93
2023/08/11 01:01:45;;;;;;;9.40;2.10;;;;;;;18.37;100.00;100624.47;4992656;28;20029;-93
2023/08/11 01:04:12;;;;;;;12.18;2.65;;;;;;;18.22;100.00;100617.97;4982680;28;20397;-94
2023/08/11 01:06:50;;;;;;;6.40;1.77;;;;;;;18.15;100.00;100615.06;4973139;28;20114;-93
2023/08/11 01:09:35;;;;;;;4.22;1.73;;;;;;;18.27;100.00;100628.84;4973330;28;20022;-93
2023/08/11 01:12:28;;;;;;;8.43;2.40;;;;;;;18.28;100.00;100626.09;4971920;28;20030;-93
2023/08/11 01:15:10;;;;;;;5.80;1.80;;;;;;;18.33;100.00;100623.09;4989527;28;20033;-93
2023/08/11 01:17:38;;;;;;;4.90;2.17;;;;;;;18.33;100.00;100628.31;4992537;28;20042;-94
2023/08/11 01:20:10;;;;;;;4.15;2.05;;;;;;;18.34;100.00;100630.81;4991344;28;20050;-93
2023/08/11 01:22:36;;;;;;;5.03;1.60;;;;;;;18.29;100.00;100626.91;4991197;28;20019;-94
2023/08/11 01:25:02;;;;;;;4.93;1.50;;;;;;;18.34;100.00;100622.13;4973363;28;20050;-94
2023/08/11 01:27:28;;;;;;;4.72;1.70;;;;;;;18.33;100.00;100623.91;4972968;28;20027;-94
2023/08/11 01:29:54;;;;;;;5.07;1.88;;;;;;;18.32;100.00;100627.50;4972913;28;20042;-94
2023/08/11 01:32:19;;;;;;;4.03;2.03;;;;;;;18.44;100.00;100636.06;4973110;28;20026;-94
2023/08/11 01:34:44;;;;;;;3.50;1.08;;;;;;;18.37;100.00;100627.91;4987049;28;20104;-94
2023/08/11 01:37:10;;;;;;;6.32;2.45;;;;;;;18.39;100.00;100626.00;4991285;28;20123;-93
2023/08/11 01:39:35;;;;;;;2.80;1.60;;;;;;;18.36;100.00;100617.56;4992385;28;20026;-94
2023/08/11 01:42:01;;;;;;;4.40;1.55;;;;;;;18.32;100.00;100622.25;4990947;28;20503;-93
2023/08/11 01:44:27;;;;;;;5.63;1.50;;;;;;;18.32;100.00;100617.03;4978363;28;20042;-93
2023/08/11 01:46:55;;;;;;;5.10;1.85;;;;;;;18.33;100.00;100615.25;4972991;28;20034;-93
2023/08/11 01:49:25;;;;;;;4.25;1.73;;;;;;;18.30;100.00;100613.72;4971765;28;20023;-94
2023/08/11 01:51:53;;;;;;;4.13;1.08;;;;;;;18.25;100.00;100608.06;4975142;28;20026;-93
2023/08/11 01:54:18;;;;;;;3.80;1.42;;;;;;;18.35;100.00;100611.53;4975043;28;20031;-94
2023/08/11 01:56:44;;;;;;;3.00;1.27;;;;;;;18.28;100.00;100604.38;4976620;28;20038;-93
2023/08/11 01:59:17;;;;;;;3.17;1.60;;;;;;;18.28;100.00;100610.41;4975311;28;20034;-93
2023/08/11 02:01:43;;;;;;;3.05;1.40;;;;;;;18.23;100.00;100607.38;4975298;28;20023;-93
2023/08/11 02:04:09;;;;;;;3.47;1.35;;;;;;;18.29;100.00;100612.09;4985640;28;20053;-93
2023/08/11 02:06:37;;;;;;;3.05;1.20;;;;;;;18.30;100.00;100605.06;4994518;28;20472;-94
2023/08/11 02:09:07;;;;;;;4.63;1.17;;;;;;;18.39;100.00;100615.53;4993330;28;20027;-93
2023/08/11 02:11:33;;;;;;;2.20;1.63;;;;;;;18.36;100.00;100612.34;4994776;28;20053;-93
2023/08/11 02:13:58;;;;;;;3.47;2.00;;;;;;;18.31;100.00;100601.47;4994747;28;20393;-93
2023/08/11 02:16:23;;;;;;;3.80;1.58;;;;;;;18.47;100.00;100604.41;4994979;28;20113;-93
2023/08/11 02:18:49;;;;;;;4.07;1.90;;;;;;;18.43;100.00;100595.19;4994804;28;20088;-95
2023/08/11 02:21:14;;;;;;;3.20;1.90;;;;;;;18.43;100.00;100594.34;4994975;28;20520;-93
2023/08/11 02:23:39;;;;;;;2.42;1.55;;;;;;;18.35;100.00;100601.09;4994608;28;20448;-94
2023/08/11 02:26:05;;;;;;;3.00;1.40;;;;;;;18.44;100.00;100601.25;4994940;28;20030;-94
2023/08/11 02:28:31;;;;;;;2.42;1.23;;;;;;;18.39;100.00;100602.47;4993700;28;20549;-94
2023/08/11 02:30:57;;;;;;;4.15;2.08;;;;;;;18.40;100.00;100603.28;4994678;28;20027;-94
2023/08/11 02:33:22;;;;;;;3.70;1.65;;;;;;;18.37;100.00;100609.63;4994438;28;20042;-94
2023/08/11 02:35:48;;;;;;;2.70;1.73;;;;;;;18.47;100.00;100611.44;4994371;28;20437;-94
2023/08/11 02:38:16;;;;;;;3.08;2.00;;;;;;;18.33;100.00;100608.22;4993891;28;20106;-94
2023/08/11 02:40:41;;;;;;;2.42;1.52;;;;;;;18.29;100.00;100606.84;4984184;28;20061;-93
2023/08/11 02:43:07;;;;;;;3.13;1.83;;;;;;;18.28;100.00;100604.38;4976421;28;20539;-95
2023/08/11 02:45:32;;;;;;;4.57;1.80;;;;;;;18.30;100.00;100607.69;4975857;28;20105;-94
2023/08/11 02:47:58;;;;;;;3.63;1.70;;;;;;;18.51;100.00;100615.44;4976646;28;20073;-94
2023/08/11 02:50:23;;;;;;;2.38;1.45;;;;;;;18.46;100.00;100607.16;4994633;28;20490;-94
2023/08/11 02:52:48;;;;;;;4.13;1.77;;;;;;;18.34;100.00;100609.91;4986248;28;20023;-94
2023/08/11 02:55:14;;;;;;;3.85;1.52;;;;;;;18.42;100.00;100606.59;4974927;28;20031;-94
2023/08/11 02:57:40;;;;;;;3.92;1.92;;;;;;;18.47;100.00;100604.41;4975876;28;20054;-94
2023/08/11 03:00:15;;;;;;;4.00;1.50;;;;;;;18.37;100.00;100609.63;4993197;28;20061;-94
2023/08/11 03:02:41;;;;;;;2.47;1.45;;;;;;;18.31;100.00;100609.31;4993082;28;20053;-94
2023/08/11 03:05:09;;;;;;;3.10;1.40;;;;;;;18.38;100.00;100606.03;4993963;28;20077;-94
2023/08/11 03:07:35;;;;;;;3.97;1.20;;;;;;;18.35;100.00;100606.31;4994212;28;20022;-93
2023/08/11 03:10:01;;;;;;;2.90;1.08;;;;;;;18.45;100.00;100606.31;4976603;28;20454;-95
2023/08/11 03:12:28;;;;;;;1.15;0.73;;;;;;;18.32;100.00;100606.59;4974418;28;20022;-94
2023/08/11 03:14:53;;;;;;;3.25;0.98;;;;;;;18.28;100.00;100613.03;4974461;28;20132;-94
2023/08/11 03:17:18;;;;;;;3.50;1.25;;;;;;;18.46;100.00;100617.59;4974089;28;20465;-95
2023/08/11 03:19:44;;;;;;;1.80;0.93;;;;;;;18.38;100.00;100602.59;4975318;28;20531;-94
2023/08/11 03:22:09;;;;;;;3.60;1.08;;;;;;;18.39;100.00;100606.88;4974480;28;20023;-95
2023/08/11 03:24:35;;;;;;;1.25;0.65;;;;;;;18.39;100.00;100610.31;4975385;28;20505;-95
2023/08/11 03:27:00;;;;;;;5.28;1.55;;;;;;;18.42;100.00;100611.00;4974376;28;20026;-95
2023/08/11 03:29:25;;;;;;;2.60;0.93;;;;;;;18.51;100.00;100605.81;4975100;28;20035;-94
2023/08/11 03:31:51;;;;;;;2.08;0.80;;;;;;;18.32;100.00;100608.38;4974147;28;20055;-95
2023/08/11 03:34:16;;;;;;;4.13;0.95;;;;;;;18.22;100.00;100610.97;4974207;28;20173;-95
2023/08/11 03:36:43;;;;;;;5.47;1.70;;;;;;;18.33;100.00;100610.84;4974451;28;20089;-95
2023/08/11 03:39:08;;;;;;;2.72;1.02;;;;;;;18.20;100.00;100612.88;4983431;28;20038;-94
2023/08/11 03:41:34;;;;;;;4.72;1.17;;;;;;;18.27;100.00;100613.19;4993633;28;20045;-94
2023/08/11 03:43:59;;;;;;;6.47;1.83;;;;;;;18.22;100.00;100618.81;4993467;28;20558;-95
2023/08/11 03:46:25;;;;;;;3.65;0.98;;;;;;;18.16;100.00;100611.47;4993950;28;20393;-94
2023/08/11 03:48:50;;;;;;;5.50;1.25;;;;;;;18.06;100.00;100606.22;4991628;28;20032;-94
2023/08/11 03:51:15;;;;;;;4.32;1.90;;;;;;;17.96;100.00;100615.81;4994522;28;20498;-95
2023/08/11 03:53:42;;;;;;;4.35;1.00;;;;;;;18.12;100.00;100620.56;4994156;28;20454;-95
2023/08/11 03:56:07;;;;;;;5.00;1.33;;;;;;;18.04;100.00;100615.16;4992752;28;20026;-94
2023/08/11 03:58:39;;;;;;;4.07;1.08;;;;;;;17.83;100.00;100615.22;4988447;28;20504;-95
2023/08/11 04:01:04;;;;;;;5.75;1.20;;;;;;;17.82;100.00;100611.75;4974603;28;20031;-94
2023/08/11 04:03:31;;;;;;;3.95;1.20;;;;;;;17.80;100.00;100616.31;4972988;28;20556;-95
2023/08/11 04:05:59;;;;;;;6.03;1.27;;;;;;;17.72;100.00;100613.47;4973463;28;20026;-95
2023/08/11 04:08:26;;;;;;;11.77;1.67;;;;;;;17.86;100.00;100615.78;4973513;28;20058;-94
2023/08/11 04:10:53;;;;;;;10.43;2.42;;;;;;;17.85;100.00;100618.50;4973591;28;20077;-94
2023/08/11 04:13:18;;;;;;;7.82;1.90;;;;;;;17.73;100.00;100625.59;4972810;28;20029;-94
2023/08/11 04:15:45;;;;;;;5.68;1.40;;;;;;;17.63;100.00;100622.94;4974419;28;20031;-95
2023/08/11 04:18:11;;;;;;;7.28;1.67;;;;;;;17.47;100.00;100620.75;4973903;28;20054;-95
2023/08/11 04:20:37;;;;;;;7.20;1.40;;;;;;;17.39;100.00;100628.41;4994512;28;20023;-95
2023/08/11 04:23:03;;;;;;;7.03;1.73;;;;;;;17.60;100.00;100619.75;4992317;28;20034;-96
2023/08/11 04:25:29;;;;;;;6.10;1.52;;;;;;;17.45;100.00;100617.44;4993644;28;20445;-95
2023/08/11 04:27:55;;;;;;;5.93;1.58;;;;;;;17.36;100.00;100617.38;4992458;28;20058;-94
2023/08/11 04:30:21;;;;;;;4.38;1.50;;;;;;;17.30;100.00;100616.94;4984847;28;20477;-95
2023/08/11 04:32:46;;;;;;;5.55;1.90;;;;;;;17.21;100.00;100614.28;4972755;28;20033;-95
2023/08/11 04:35:12;;;;;;;9.45;1.70;;;;;;;17.15;100.00;100617.41;4972562;28;20073;-95
2023/08/11 04:37:38;;;;;;;7.85;1.83;;;;;;;17.32;100.00;100612.44;4972728;28;20027;-94
2023/08/11 04:40:10;;;;;;;5.60;1.42;;;;;;;17.24;100.00;100614.00;4975674;28;20559;-94
2023/08/11 04:42:39;;;;;;;6.90;1.70;;;;;;;17.10;100.00;100608.16;4992034;28;20097;-95
2023/08/11 04:45:04;;;;;;;5.60;1.50;;;;;;;17.01;100.00;100603.69;4992039;28;20030;-94
2023/08/11 04:47:30;;;;;;;5.03;1.50;;;;;;;17.04;100.00;100608.66;4992282;28;20121;-94
2023/08/11 04:49:55;;;;;;;10.27;1.83;;;;;;;17.13;100.00;100614.09;4990968;28;20439;-94
2023/08/11 04:52:21;;;;;;;3.53;1.23;;;;;;;17.12;100.00;100615.88;4991870;28;20065;-96
2023/08/11 04:54:47;;;;;;;7.78;1.65;;;;;;;17.13;100.00;100614.09;4991955;28;20027;-96
2023/08/11 04:57:12;;;;;;;8.82;2.50;;;;;;;17.16;100.00;100616.44;4991811;28;20065;-96
2023/08/11 04:59:37;;;;;;;7.15;2.03;;;;;;;17.15;100.00;100620.00;4991434;28;20049;-95
2023/08/11 05:02:03;;;;;;;8.10;2.10;;;;;;;17.19;100.00;100618.78;4987969;28;20066;-96
2023/08/11 05:04:28;;;;;;;7.03;1.83;;;;;;;17.14;100.00;100624.38;4973655;28;20027;-96
2023/08/11 05:06:54;;;;;;;11.93;2.55;;;;;;;17.11;100.00;100620.25;4973561;28;20520;-96
2023/08/11 05:09:19;;;;;;;6.72;2.58;;;;;;;17.13;100.00;100617.53;4973397;28;20023;-95
2023/08/11 05:11:44;;;;;;;6.13;2.03;;;;;;;17.16;100.00;100626.88;4974122;28;20023;-96
2023/08/11 05:14:10;;;;;;;11.38;2.35;;;;;;;17.27;100.00;100624.22;4973253;28;20488;-96
2023/08/11 05:16:35;;;;;;;10.13;3.00;;;;;;;17.27;100.00;100624.22;4972356;28;20031;-96
2023/08/11 05:19:01;;;;;;;9.32;2.08;;;;;;;17.25;100.00;100629.56;4972513;28;20026;-96
2023/08/11 05:21:26;;;;;;;14.25;3.05;;;;;;;17.24;100.00;100634.88;4980128;28;20066;-96
2023/08/11 05:23:52;;;;;;;5.57;1.58;;;;;;;17.25;100.00;100632.16;4991238;28;20046;-96
2023/08/11 05:26:18;;;;;;;6.10;1.80;;;;;;;17.28;100.00;100631.91;4994443;28;20033;-96
2023/08/11 05:28:43;;;;;;;7.43;2.00;;;;;;;17.32;100.00;100627.28;4994304;28;20492;-96
2023/08/11 05:31:09;;;;;;;9.60;2.60;;;;;;;17.28;100.00;100628.47;4989471;28;20022;-96
2023/08/11 05:33:34;;;;;;;6.13;1.67;;;;;;;17.28;100.00;100625.84;4981544;28;20038;-96
2023/08/11 05:36:00;;;;;;;8.38;2.05;;;;;;;17.31;100.00;100626.44;4996554;28;20026;-95
2023/08/11 05:38:25;;;;;;;6.10;1.48;;;;;;;17.30;100.00;100619.56;4995481;28;20030;-96
2023/08/11 05:40:51;;;;;;;14.60;3.00;;;;;;;17.29;100.00;100627.53;4994538;28;20284;-93
2023/08/11 05:43:17;;;;;;;5.07;1.65;;;;;;;17.38;100.00;100629.34;4995426;28;20026;-96
2023/08/11 05:45:42;;;;;;;5.22;1.90;;;;;;;17.43;100.00;100635.00;4995130;28;20358;-94
2023/08/11 05:48:07;;;;;;;10.80;2.40;;;;;;;17.37;100.00;100638.16;4995416;28;20120;-96
2023/08/11 05:50:33;;;;;;;9.02;1.58;;;;;;;17.36;100.00;100646.91;5000415;28;20033;-96
2023/08/11 05:52:58;;;;;;;14.95;2.13;;;;;;;17.57;100.00;100661.75;4997868;28;20026;-96
2023/08/11 05:55:23;;;;;;;9.63;2.75;;;;;;;17.71;100.00;100648.38;4995279;28;20472;-96
2023/08/11 05:57:49;;;;;;;9.63;2.00;;;;;;;17.76;100.00;100652.25;4995237;28;20026;-96
2023/08/11 06:00:18;;;;;;;8.30;2.08;;;;;;;17.88;100.00;100660.88;4993977;28;20030;-96
2023/08/11 06:02:47;;;;;;;9.50;1.50;;;;;;;17.92;100.00;100662.28;5054641;23;20042;-96
2023/08/11 06:05:15;;;;;;;5.80;2.25;;;;;;;17.87;100.00;100658.38;5003320;28;20042;-96
2023/08/11 06:07:41;;;;;;;4.18;1.40;;;;;;;17.94;100.00;100657.72;5035565;23;20043;-96
2023/08/11 06:10:07;;;;;;;7.72;2.08;;;;;;;17.91;100.00;100659.78;5014551;23;20085;-96
2023/08/11 06:12:32;;;;;;;8.93;2.20;;;;;;;17.96;100.00;100658.41;4986727;28;20081;-96
2023/08/11 06:14:58;;;;;;;6.82;1.73;;;;;;;18.13;100.00;100658.78;4976295;28;20030;-93
2023/08/11 06:17:24;;;;;;;7.47;2.13;;;;;;;18.21;100.00;100661.53;4975456;28;20499;-96
2023/08/11 06:19:50;;;;;;;5.57;1.80;;;;;;;18.24;100.00;100658.69;4971114;28;20109;-96
2023/08/11 06:22:16;;;;;;;7.68;2.83;;;;;;;18.30;100.00;100652.09;4984485;28;20030;-96
2023/08/11 06:24:41;;;;;;;5.10;1.40;;;;;;;18.45;100.00;100663.00;4972264;28;20031;-95
2023/08/11 06:27:06;;;;;;;4.43;1.70;;;;;;;18.56;100.00;100666.34;4963170;28;20037;-96
2023/08/11 06:29:32;;;;;;;6.68;1.90;;;;;;;18.51;100.00;100662.50;4973689;29;20032;-96
2023/08/11 06:31:57;;;;;;;3.38;1.13;;;;;;;18.86;100.00;100669.84;4975107;29;20055;-96
2023/08/11 06:34:23;;;;;;;5.15;1.80;;;;;;;18.50;100.00;100660.81;4960022;28;20472;-95
2023/08/11 06:36:49;;;;;;;13.50;2.58;;;;;;;18.43;100.00;100659.69;4996645;28;20133;-96
2023/08/11 06:39:15;;;;;;;9.48;1.85;;;;;;;18.31;100.00;100664.19;5003610;28;20104;-96
2023/08/11 06:41:44;;;;;;;7.38;1.92;;;;;;;18.41;100.00;100662.47;5012484;28;20153;-96
2023/08/11 06:44:09;;;;;;;5.60;1.52;;;;;;;18.50;100.00;100668.66;5008835;28;20090;-94
2023/08/11 06:46:35;;;;;;;5.07;2.00;;;;;;;18.70;100.00;100667.72;4994672;28;20022;-96
2023/08/11 06:49:02;;;;;;;5.43;1.67;;;;;;;18.66;100.00;100671.59;4996429;28;20182;-95
2023/08/11 06:51:27;;;;;;;4.70;1.73;;;;;;;18.86;100.00;100671.66;4996073;28;20061;-96
2023/08/11 06:53:53;;;;;;;5.85;1.70;;;;;;;19.35;100.00;100669.84;4979028;28;20077;-95
2023/08/11 06:56:18;;;;;;;7.28;1.75;;;;;;;19.21;100.00;100673.72;4974353;28;20109;-95
2023/08/11 06:58:43;;;;;;;5.80;1.85;;;;;;;19.17;100.00;100665.31;4976055;28;20439;-95
2023/08/11 07:01:09;;;;;;;5.50;1.92;;;;;;;19.52;100.00;100661.28;4976446;28;20050;-96
2023/08/11 07:03:34;;;;;;;6.05;1.80;;;;;;;19.38;100.00;100674.81;4975968;28;20476;-96
2023/08/11 07:06:01;;;;;;;5.75;1.60;;;;;;;19.22;100.00;100678.81;4977101;28;20038;-96
2023/08/11 07:08:26;;;;;;;5.05;1.38;;;;;;;19.21;100.00;100671.91;4958249;28;20054;-96
2023/08/11 07:10:52;;;;;;;6.18;1.98;;;;;;;19.22;100.00;100678.81;4957464;28;20533;-96
2023/08/11 07:13:17;;;;;;;7.72;2.47;;;;;;;19.19;100.00;100679.09;4959585;28;20595;-96
2023/08/11 07:15:43;;;;;;;5.88;1.85;;;;;;;19.25;100.00;100678.53;4956030;29;20320;-95
2023/08/11 07:18:10;;;;;;;8.73;2.42;;;;;;;19.41;100.00;100687.59;4969875;28;20074;-93
2023/08/11 07:20:39;;;;;;;10.48;2.85;;;;;;;19.49;100.00;100690.38;4969586;28;20023;-95
2023/08/11 07:23:05;;;;;;;10.50;1.88;;;;;;;19.52;100.00;100691.88;4971168;28;20023;-95
2023/08/11 07:25:30;;;;;;;9.27;2.53;;;;;;;19.42;100.00;100699.75;4973031;28;20023;-94
2023/08/11 07:27:56;;;;;;;8.68;1.95;;;;;;;19.39;100.00;100694.81;4973086;28;20034;-94
2023/08/11 07:30:21;;;;;;;6.10;1.58;;;;;;;19.08;100.00;100696.72;4973073;28;20153;-94
2023/08/11 07:32:47;;;;;;;12.85;1.80;;;;;;;19.15;100.00;100698.66;4974302;28;20022;-94
2023/08/11 07:35:12;;;;;;;5.97;1.52;;;;;;;19.14;100.00;100702.25;4972428;28;20158;-93
2023/08/11 07:37:38;;;;;;;10.93;2.50;;;;;;;19.27;100.00;100698.53;4976393;28;20022;-94
2023/08/11 07:40:04;;;;;;;6.82;1.77;;;;;;;19.24;100.00;100703.06;4974570;28;20034;-94
2023/08/11 07:42:29;;;;;;;8.50;1.85;;;;;;;19.34;100.00;100707.47;4972634;28;20105;-95
2023/08/11 07:44:55;;;;;;;4.45;1.40;;;;;;;19.60;100.00;100708.53;4977740;28;20456;-94
2023/08/11 07:47:20;;;;;;;7.10;2.63;;;;;;;19.71;100.00;100704.16;4976192;28;20027;-93
2023/08/11 07:49:46;;;;;;;8.50;1.73;;;;;;;21.21;93.92;100710.88;4973639;28;20121;-94
2023/08/11 07:52:11;;;;;;;4.22;1.38;;;;;;;20.85;91.55;100713.50;4973082;28;20019;-94
2023/08/11 07:54:37;;;;;;;6.18;1.63;;;;;;;20.64;94.92;100720.81;4974553;28;20027;-93
2023/08/11 07:57:02;;;;;;;3.72;1.30;;;;;;;21.30;92.21;100717.03;4971979;28;20018;-94
2023/08/11 07:59:28;;;;;;;7.53;1.73;;;;;;;21.24;88.79;100712.38;4970918;28;20027;-95
2023/08/11 08:01:53;;;;;;;5.88;1.73;;;;;;;21.88;86.65;100718.31;4972235;28;20035;-92
2023/08/11 08:04:18;;;;;;;9.70;1.77;;;;;;;23.89;73.19;100716.47;4971555;28;20027;-92
2023/08/11 08:06:45;;;;;;;6.30;1.42;;;;;;;24.32;69.45;100722.28;4973328;28;20023;-94
2023/08/11 08:09:14;;;;;;;4.55;1.10;;;;;;;23.78;70.46;100718.69;4972082;28;20449;-94
2023/08/11 08:11:43;;;;;;;2.95;0.80;;;;;;;22.87;73.78;100717.75;4970894;28;20042;-93
2023/08/11 08:14:10;;;;;;;5.43;1.52;;;;;;;22.57;75.64;100721.78;4971849;28;20033;-94
2023/08/11 08:16:36;;;;;;;4.00;1.23;;;;;;;22.29;74.17;100727.28;4973404;28;20073;-93
2023/08/11 08:19:01;;;;;;;4.80;1.13;;;;;;;21.98;73.50;100714.59;4972607;28;20023;-93
2023/08/11 08:21:27;;;;;;;7.70;1.85;;;;;;;23.46;68.93;100726.41;4973074;28;20019;-94
2023/08/11 08:23:52;;;;;;;8.23;2.00;;;;;;;23.56;66.02;100725.41;4972705;28;20555;-94
2023/08/11 08:26:17;;;;;;;5.00;1.38;;;;;;;22.73;68.93;100728.94;4973023;28;20038;-94
2023/08/11 08:28:43;;;;;;;7.60;1.30;;;;;;;24.02;64.85;100728.31;4974044;28;20037;-94
2023/08/11 08:31:09;;;;;;;6.68;1.10;;;;;;;24.74;59.84;100726.41;4972842;28;20070;-92
2023/08/11 08:33:35;;;;;;;3.35;1.10;;;;;;;25.55;59.05;100723.38;4972569;28;20059;-94
2023/08/11 08:36:00;;;;;;;4.78;1.10;;;;;;;25.98;56.92;100718.34;4969144;28;20089;-94
2023/08/11 08:38:25;;;;;;;4.25;1.10;;;;;;;26.76;53.94;100722.19;4952729;29;20024;-94
2023/08/11 08:40:51;;;;;;;4.00;0.77;;;;;;;27.32;52.08;100719.69;4954407;28;20057;-94
2023/08/11 08:43:17;;;;;;;3.10;0.98;;;;;;;27.37;50.26;100721.78;4954283;28;20030;-94
2023/08/11 08:45:44;;;;;;;3.45;1.00;;;;;;;26.02;53.83;100719.63;4952826;29;20023;-94
2023/08/11 08:48:18;;;;;;;5.45;0.98;;;;;;;25.70;54.38;100726.03;4954215;28;20059;-94
2023/08/11 08:50:44;;;;;;;4.15;0.80;;;;;;;25.25;55.85;100722.47;4954260;28;20024;-94
2023/08/11 08:53:09;;;;;;;5.60;0.90;;;;;;;25.52;56.29;100727.19;4954248;28;20032;-93
2023/08/11 08:55:35;;;;;;;6.30;0.88;;;;;;;25.58;56.01;100721.22;4954249;28;20521;-94
2023/08/11 08:58:00;;;;;;;6.25;1.02;;;;;;;25.89;55.19;100717.59;4954100;28;20393;-94
2023/08/11 09:00:26;;;;;;;7.00;1.42;;;;;;;25.48;54.59;100717.97;4954194;28;20063;-94
2023/08/11 09:02:53;;;;;;;7.20;1.23;;;;;;;25.36;53.92;100727.31;4952681;29;20033;-93
2023/08/11 09:05:19;;;;;;;7.90;1.27;;;;;;;26.00;51.69;100713.72;4953966;28;20027;-94
2023/08/11 09:07:44;;;;;;;7.53;1.35;;;;;;;25.96;51.95;100717.72;4953991;29;20023;-93
2023/08/11 09:10:10;;;;;;;3.00;1.00;;;;;;;26.72;50.58;100720.91;4953781;28;20043;-94
2023/08/11 09:12:35;;;;;;;4.85;0.90;;;;;;;25.97;51.62;100730.75;4952692;29;20034;-94
2023/08/11 09:15:07;;;;;;;5.47;1.30;;;;;;;26.53;50.65;100732.94;4953805;28;20102;-94
2023/08/11 09:17:36;;;;;;;4.10;0.88;;;;;;;25.85;52.16;100726.91;4952545;29;20031;-94
2023/08/11 09:20:02;;;;;;;3.55;0.95;;;;;;;25.94;50.98;100728.47;4952693;29;20027;-94
2023/08/11 09:22:32;;;;;;;6.22;1.90;;;;;;;25.48;52.13;100733.81;4952480;29;20110;-93
2023/08/11 09:24:57;;;;;;;7.05;1.13;;;;;;;25.23;51.73;100730.56;4953615;28;20162;-94
2023/08/11 09:27:23;;;;;;;3.97;0.90;;;;;;;25.10;52.67;100725.03;4954270;28;20114;-94
2023/08/11 09:29:49;;;;;;;5.60;1.15;;;;;;;24.77;54.58;100736.63;4953836;28;20024;-94
2023/08/11 09:32:15;;;;;;;11.32;4.57;;;;;;;24.65;55.03;100737.19;4953633;28;20114;-94
2023/08/11 09:34:42;;;;;;;30.80;20.42;;;;;;;24.38;55.75;100730.50;4953681;28;20146;-94
2023/08/11 09:37:08;;;;;;;59.10;34.70;;;;;;;24.28;55.48;100722.81;4953675;28;20086;-94
2023/08/11 09:39:34;;;;;;;28.60;17.08;;;;;;;24.20;54.72;100733.41;4953672;28;20042;-95
2023/08/11 09:42:00;;;;;;;14.02;5.93;;;;;;;24.18;56.32;100735.38;4953677;28;20023;-94
2023/08/11 09:44:26;;;;;;;14.30;7.07;;;;;;;24.34;56.63;100733.50;4953356;28;20027;-94
2023/08/11 09:46:51;;;;;;;7.57;1.80;;;;;;;24.50;54.65;100726.53;4953693;28;20386;-94
2023/08/11 09:49:17;;;;;;;16.52;10.13;;;;;;;24.18;54.90;100727.47;4953831;28;20458;-95
2023/08/11 09:51:43;;;;;;;6.35;2.28;;;;;;;24.00;56.30;100739.06;4953775;28;20030;-94
2023/08/11 09:54:10;;;;;;;8.30;1.70;;;;;;;24.63;56.92;100736.53;4953589;28;20914;-94
2023/08/11 09:56:37;;;;;;;7.70;1.65;;;;;;;25.40;52.69;100731.25;4952216;29;20470;-94
2023/08/11 09:59:04;;;;;;;8.75;1.65;;;;;;;25.82;51.23;100729.88;4953433;29;20074;-94
2023/08/11 10:01:33;;;;;;;6.30;1.42;;;;;;;26.46;49.72;100724.06;4953636;28;20023;-94
2023/08/11 10:04:02;;;;;;;5.75;1.80;;;;;;;26.34;49.10;100718.44;4951965;29;20127;-94
2023/08/11 10:06:29;;;;;;;5.32;1.27;;;;;;;25.63;49.32;100721.47;4953261;28;20035;-94
2023/08/11 10:09:00;;;;;;;5.35;1.05;;;;;;;26.45;47.95;100723.22;4953441;28;20496;-94
2023/08/11 10:11:28;;;;;;;8.13;1.20;;;;;;;26.92;47.00;100718.47;4954432;28;20047;-94
2023/08/11 10:13:56;;;;;;;8.00;1.42;;;;;;;27.26;46.52;100707.22;4956844;28;20272;-94
2023/08/11 10:16:23;;;;;;;4.97;1.05;;;;;;;27.16;45.79;100705.88;4957067;28;20031;-94
2023/08/11 10:18:49;;;;;;;6.35;1.45;;;;;;;26.00;46.88;100711.88;4956908;28;20413;-94
2023/08/11 10:21:15;;;;;;;5.50;1.10;;;;;;;26.14;46.42;100717.34;4956697;28;20031;-94
2023/08/11 10:23:41;;;;;;;2.97;0.88;;;;;;;26.05;46.21;100714.78;4956593;28;20046;-94
2023/08/11 10:26:07;;;;;;;4.47;1.30;;;;;;;26.02;46.42;100720.47;4955379;29;20037;-93
2023/08/11 10:28:33;;;;;;;3.97;1.30;;;;;;;26.07;47.54;100705.84;4956689;28;20474;-94
2023/08/11 10:31:01;;;;;;;4.82;1.17;;;;;;;26.51;47.82;100713.75;4956773;28;20034;-94
2023/08/11 10:33:30;;;;;;;5.15;1.40;;;;;;;27.03;47.32;100717.97;4956484;28;20043;-94
2023/08/11 10:35:57;;;;;;;4.20;1.23;;;;;;;27.57;45.15;100711.31;4955238;29;20023;-94
2023/08/11 10:38:27;;;;;;;3.65;1.50;;;;;;;27.53;45.61;100712.72;4956533;28;20485;-94
2023/08/11 10:41:07;;;;;;;6.18;1.35;;;;;;;27.35;44.03;100720.34;4955153;29;20481;-94
2023/08/11 10:43:37;;;;;;;3.07;1.03;;;;;;;27.31;44.57;100712.78;4954978;29;20024;-94
2023/08/11 10:46:25;;;;;;;6.20;1.43;;;;;;;27.83;44.84;100712.56;4956538;28;20031;-94
2023/08/11 10:48:52;;;;;;;4.00;1.33;;;;;;;27.91;44.32;100721.16;4949009;29;20493;-94
2023/08/11 10:51:24;;;;;;;5.80;1.70;;;;;;;27.24;46.29;100714.53;4956325;28;20035;-94
2023/08/11 10:53:49;;;;;;;5.20;1.40;;;;;;;27.85;45.28;100726.41;4956344;29;20046;-95
2023/08/11 10:56:15;;;;;;;9.57;1.75;;;;;;;28.06;43.80;100718.38;4956394;28;20027;-93
2023/08/11 10:58:43;;;;;;;4.95;2.92;;;;;;;28.14;43.84;100712.94;4956159;28;20029;-94
2023/08/11 11:01:09;;;;;;;10.38;1.45;;;;;;;28.20;43.53;100718.47;4954788;29;20485;-94
2023/08/11 11:03:34;;;;;;;7.53;1.55;;;;;;;28.83;42.72;100719.13;4954680;29;20038;-94
2023/08/11 11:06:04;;;;;;;8.35;1.50;;;;;;;29.25;41.80;100711.81;4954951;29;20027;-95
2023/08/11 11:08:29;;;;;;;6.60;1.67;;;;;;;29.47;42.43;100708.97;4956069;28;20027;-93
2023/08/11 11:10:55;;;;;;;4.32;1.30;;;;;;;29.71;40.58;100708.34;4955944;28;20406;-94
2023/08/11 11:13:20;;;;;;;5.10;1.45;;;;;;;29.34;40.33;100710.59;4956086;28;20031;-94
2023/08/11 11:15:46;;;;;;;4.68;1.48;;;;;;;29.37;41.10;100704.88;4955919;28;20035;-95